sensor_id;sensor_type;location;lat;lon;timestamp;temperature;humidity
22568;DHT22;11450;50.818;4.382;2022-12-07T00:01:32;6.10;99.90
22568;DHT22;11450;50.818;4.382;2022-12-07T00:04:00;6.10;99.90
22568;DHT22;11450;50.818;4.382;2022-12-07T00:06:33;6.10;99.90
22568;DHT22;11450;50.818;4.382;2022-12-07T00:08:59;6.10;99.90
22568;DHT22;11450;50.818;4.382;2022-12-07T00:11:25;6.10;99.90
22568;DHT22;11450;50.818;4.382;2022-12-07T00:13:52;6.10;99.90
22568;DHT22;11450;50.818;4.382;2022-12-07T00:16:20;6.10;99.90
22568;DHT22;11450;50.818;4.382;2022-12-07T00:18:46;6.10;99.90
22568;DHT22;11450;50.818;4.382;2022-12-07T00:23:45;6.10;99.90
22568;DHT22;11450;50.818;4.382;2022-12-07T00:26:25;6.10;99.90
22568;DHT22;11450;50.818;4.382;2022-12-07T00:28:59;6.00;99.90
22568;DHT22;11450;50.818;4.382;2022-12-07T00:31:36;6.00;99.90
22568;DHT22;11450;50.818;4.382;2022-12-07T00:34:05;6.00;99.90
22568;DHT22;11450;50.818;4.382;2022-12-07T00:36:31;5.80;99.90
22568;DHT22;11450;50.818;4.382;2022-12-07T00:38:58;5.80;99.90
22568;DHT22;11450;50.818;4.382;2022-12-07T00:41:25;5.80;99.90
22568;DHT22;11450;50.818;4.382;2022-12-07T00:43:52;5.80;99.90
22568;DHT22;11450;50.818;4.382;2022-12-07T00:46:19;5.70;99.90
22568;DHT22;11450;50.818;4.382;2022-12-07T00:48:46;5.70;99.90
22568;DHT22;11450;50.818;4.382;2022-12-07T00:51:13;5.70;99.90
22568;DHT22;11450;50.818;4.382;2022-12-07T00:53:40;5.70;99.90
22568;DHT22;11450;50.818;4.382;2022-12-07T00:56:19;5.70;99.90
22568;DHT22;11450;50.818;4.382;2022-12-07T00:58:53;5.70;99.90
22568;DHT22;11450;50.818;4.382;2022-12-07T01:01:21;5.70;99.90
22568;DHT22;11450;50.818;4.382;2022-12-07T01:03:47;5.60;99.90
22568;DHT22;11450;50.818;4.382;2022-12-07T01:06:17;5.60;99.90
22568;DHT22;11450;50.818;4.382;2022-12-07T01:08:43;5.60;99.90
22568;DHT22;11450;50.818;4.382;2022-12-07T01:11:12;5.60;99.90
22568;DHT22;11450;50.818;4.382;2022-12-07T01:13:38;5.60;99.90
22568;DHT22;11450;50.818;4.382;2022-12-07T01:16:05;5.60;99.90
22568;DHT22;11450;50.818;4.382;2022-12-07T01:18:34;5.60;99.90
22568;DHT22;11450;50.818;4.382;2022-12-07T01:21:08;5.60;99.90
22568;DHT22;11450;50.818;4.382;2022-12-07T01:23:35;5.60;99.90
22568;DHT22;11450;50.818;4.382;2022-12-07T01:26:05;5.50;99.90
22568;DHT22;11450;50.818;4.382;2022-12-07T01:28:32;5.50;99.90
22568;DHT22;11450;50.818;4.382;2022-12-07T01:31:10;5.50;99.90
22568;DHT22;11450;50.818;4.382;2022-12-07T01:33:40;5.50;99.90
22568;DHT22;11450;50.818;4.382;2022-12-07T01:36:12;5.50;99.90
22568;DHT22;11450;50.818;4.382;2022-12-07T01:38:38;5.50;99.90
22568;DHT22;11450;50.818;4.382;2022-12-07T01:41:04;5.50;99.90
22568;DHT22;11450;50.818;4.382;2022-12-07T01:43:31;5.50;99.90
22568;DHT22;11450;50.818;4.382;2022-12-07T01:45:58;5.60;99.90
22568;DHT22;11450;50.818;4.382;2022-12-07T01:48:38;5.60;99.90
22568;DHT22;11450;50.818;4.382;2022-12-07T01:51:15;5.60;99.90
22568;DHT22;11450;50.818;4.382;2022-12-07T01:53:43;5.60;99.90
22568;DHT22;11450;50.818;4.382;2022-12-07T01:56:18;5.70;99.90
22568;DHT22;11450;50.818;4.382;2022-12-07T01:58:44;5.70;99.90
22568;DHT22;11450;50.818;4.382;2022-12-07T02:01:10;5.70;99.90
22568;DHT22;11450;50.818;4.382;2022-12-07T02:03:41;5.60;99.90
22568;DHT22;11450;50.818;4.382;2022-12-07T02:06:08;5.60;99.90
22568;DHT22;11450;50.818;4.382;2022-12-07T02:08:36;5.70;99.90
22568;DHT22;11450;50.818;4.382;2022-12-07T02:11:04;5.70;99.90
22568;DHT22;11450;50.818;4.382;2022-12-07T02:13:33;5.70;99.90
22568;DHT22;11450;50.818;4.382;2022-12-07T02:26:58;5.70;99.90
22568;DHT22;11450;50.818;4.382;2022-12-07T02:29:54;5.70;99.90
22568;DHT22;11450;50.818;4.382;2022-12-07T02:32:26;5.70;99.90
22568;DHT22;11450;50.818;4.382;2022-12-07T02:35:11;5.60;99.90
22568;DHT22;11450;50.818;4.382;2022-12-07T02:42:51;5.80;99.90
22568;DHT22;11450;50.818;4.382;2022-12-07T02:45:21;5.90;99.90
22568;DHT22;11450;50.818;4.382;2022-12-07T02:47:51;5.80;99.90
22568;DHT22;11450;50.818;4.382;2022-12-07T02:50:20;5.70;99.90
22568;DHT22;11450;50.818;4.382;2022-12-07T02:52:46;5.70;99.90
22568;DHT22;11450;50.818;4.382;2022-12-07T02:55:13;5.70;99.90
22568;DHT22;11450;50.818;4.382;2022-12-07T02:57:44;5.70;99.90
22568;DHT22;11450;50.818;4.382;2022-12-07T03:00:16;5.70;99.90
22568;DHT22;11450;50.818;4.382;2022-12-07T03:02:48;5.60;99.90
22568;DHT22;11450;50.818;4.382;2022-12-07T03:05:38;5.70;99.90
22568;DHT22;11450;50.818;4.382;2022-12-07T03:13:19;5.70;99.90
22568;DHT22;11450;50.818;4.382;2022-12-07T03:16:15;5.70;99.90
22568;DHT22;11450;50.818;4.382;2022-12-07T03:18:54;5.70;99.90
22568;DHT22;11450;50.818;4.382;2022-12-07T03:21:27;5.60;99.90
22568;DHT22;11450;50.818;4.382;2022-12-07T03:23:56;5.60;99.90
22568;DHT22;11450;50.818;4.382;2022-12-07T03:26:30;5.70;99.90
22568;DHT22;11450;50.818;4.382;2022-12-07T03:28:59;5.80;99.90
22568;DHT22;11450;50.818;4.382;2022-12-07T03:31:31;5.60;99.90
22568;DHT22;11450;50.818;4.382;2022-12-07T03:34:12;5.60;99.90
22568;DHT22;11450;50.818;4.382;2022-12-07T03:36:52;5.60;99.90
22568;DHT22;11450;50.818;4.382;2022-12-07T03:39:39;5.60;99.90
22568;DHT22;11450;50.818;4.382;2022-12-07T03:42:07;5.60;99.90
22568;DHT22;11450;50.818;4.382;2022-12-07T03:44:35;5.60;99.90
22568;DHT22;11450;50.818;4.382;2022-12-07T03:49:51;5.60;99.90
22568;DHT22;11450;50.818;4.382;2022-12-07T03:52:25;5.60;99.90
22568;DHT22;11450;50.818;4.382;2022-12-07T03:57:18;5.50;99.90
22568;DHT22;11450;50.818;4.382;2022-12-07T03:59:44;5.60;99.90
22568;DHT22;11450;50.818;4.382;2022-12-07T04:02:12;5.50;99.90
22568;DHT22;11450;50.818;4.382;2022-12-07T04:04:38;5.50;99.90
22568;DHT22;11450;50.818;4.382;2022-12-07T04:07:04;5.50;99.90
22568;DHT22;11450;50.818;4.382;2022-12-07T04:09:30;5.50;99.90
22568;DHT22;11450;50.818;4.382;2022-12-07T04:11:56;5.50;99.90
22568;DHT22;11450;50.818;4.382;2022-12-07T04:14:22;5.40;99.90
22568;DHT22;11450;50.818;4.382;2022-12-07T04:16:51;5.40;99.90
22568;DHT22;11450;50.818;4.382;2022-12-07T04:19:19;5.40;99.90
22568;DHT22;11450;50.818;4.382;2022-12-07T04:21:46;5.30;99.90
22568;DHT22;11450;50.818;4.382;2022-12-07T04:24:13;5.30;99.90
22568;DHT22;11450;50.818;4.382;2022-12-07T04:26:39;5.40;99.90
22568;DHT22;11450;50.818;4.382;2022-12-07T04:29:05;5.30;99.90
22568;DHT22;11450;50.818;4.382;2022-12-07T04:31:31;5.20;99.90
22568;DHT22;11450;50.818;4.382;2022-12-07T04:33:56;5.20;99.90
22568;DHT22;11450;50.818;4.382;2022-12-07T04:36:22;5.20;99.90
22568;DHT22;11450;50.818;4.382;2022-12-07T04:38:48;5.20;99.90
22568;DHT22;11450;50.818;4.382;2022-12-07T04:41:14;5.30;99.90
22568;DHT22;11450;50.818;4.382;2022-12-07T04:43:40;5.30;99.90
22568;DHT22;11450;50.818;4.382;2022-12-07T04:46:05;5.30;99.90
22568;DHT22;11450;50.818;4.382;2022-12-07T04:48:31;5.30;99.90
22568;DHT22;11450;50.818;4.382;2022-12-07T04:50:57;5.30;99.90
22568;DHT22;11450;50.818;4.382;2022-12-07T04:53:23;5.40;99.90
22568;DHT22;11450;50.818;4.382;2022-12-07T04:55:48;5.40;99.90
22568;DHT22;11450;50.818;4.382;2022-12-07T04:58:14;5.40;99.90
22568;DHT22;11450;50.818;4.382;2022-12-07T05:00:40;5.40;99.90
22568;DHT22;11450;50.818;4.382;2022-12-07T05:03:06;5.40;99.90
22568;DHT22;11450;50.818;4.382;2022-12-07T05:05:32;5.40;99.90
22568;DHT22;11450;50.818;4.382;2022-12-07T05:07:57;5.40;99.90
22568;DHT22;11450;50.818;4.382;2022-12-07T05:10:23;5.40;99.90
22568;DHT22;11450;50.818;4.382;2022-12-07T05:12:49;5.40;99.90
22568;DHT22;11450;50.818;4.382;2022-12-07T05:15:15;5.40;99.90
22568;DHT22;11450;50.818;4.382;2022-12-07T05:17:41;5.40;99.90
22568;DHT22;11450;50.818;4.382;2022-12-07T05:20:08;5.40;99.90
22568;DHT22;11450;50.818;4.382;2022-12-07T05:22:34;5.30;99.90
22568;DHT22;11450;50.818;4.382;2022-12-07T05:24:59;5.20;99.90
22568;DHT22;11450;50.818;4.382;2022-12-07T05:27:25;5.20;99.90
22568;DHT22;11450;50.818;4.382;2022-12-07T05:29:51;5.20;99.90
22568;DHT22;11450;50.818;4.382;2022-12-07T05:32:17;5.20;99.90
22568;DHT22;11450;50.818;4.382;2022-12-07T05:34:43;5.30;99.90
22568;DHT22;11450;50.818;4.382;2022-12-07T05:37:09;5.30;99.90
22568;DHT22;11450;50.818;4.382;2022-12-07T05:39:34;5.30;99.90
22568;DHT22;11450;50.818;4.382;2022-12-07T05:42:00;5.30;99.90
22568;DHT22;11450;50.818;4.382;2022-12-07T05:44:39;5.30;99.90
22568;DHT22;11450;50.818;4.382;2022-12-07T05:47:05;5.30;99.90
22568;DHT22;11450;50.818;4.382;2022-12-07T05:49:30;5.30;99.90
22568;DHT22;11450;50.818;4.382;2022-12-07T05:51:56;5.40;99.90
22568;DHT22;11450;50.818;4.382;2022-12-07T05:54:22;5.40;99.90
22568;DHT22;11450;50.818;4.382;2022-12-07T05:56:48;5.30;99.90
22568;DHT22;11450;50.818;4.382;2022-12-07T05:59:13;5.40;99.90
22568;DHT22;11450;50.818;4.382;2022-12-07T06:02:05;5.30;99.90
22568;DHT22;11450;50.818;4.382;2022-12-07T06:04:33;5.30;99.90
22568;DHT22;11450;50.818;4.382;2022-12-07T06:06:59;5.30;99.90
22568;DHT22;11450;50.818;4.382;2022-12-07T06:09:26;5.30;99.90
22568;DHT22;11450;50.818;4.382;2022-12-07T06:11:53;5.40;99.90
22568;DHT22;11450;50.818;4.382;2022-12-07T06:14:38;5.30;99.90
22568;DHT22;11450;50.818;4.382;2022-12-07T06:17:05;5.40;99.90
22568;DHT22;11450;50.818;4.382;2022-12-07T06:19:30;5.50;99.90
22568;DHT22;11450;50.818;4.382;2022-12-07T06:21:56;5.50;99.90
22568;DHT22;11450;50.818;4.382;2022-12-07T06:24:22;5.40;99.90
22568;DHT22;11450;50.818;4.382;2022-12-07T06:26:49;5.40;99.90
22568;DHT22;11450;50.818;4.382;2022-12-07T06:29:16;5.50;99.90
22568;DHT22;11450;50.818;4.382;2022-12-07T06:31:41;5.40;99.90
22568;DHT22;11450;50.818;4.382;2022-12-07T06:34:10;5.50;99.90
22568;DHT22;11450;50.818;4.382;2022-12-07T06:36:37;5.40;99.90
22568;DHT22;11450;50.818;4.382;2022-12-07T06:39:03;5.50;99.90
22568;DHT22;11450;50.818;4.382;2022-12-07T06:41:29;5.50;99.90
22568;DHT22;11450;50.818;4.382;2022-12-07T06:43:55;5.50;99.90
22568;DHT22;11450;50.818;4.382;2022-12-07T06:46:23;5.50;99.90
22568;DHT22;11450;50.818;4.382;2022-12-07T06:48:50;5.50;99.90
22568;DHT22;11450;50.818;4.382;2022-12-07T06:51:16;5.50;99.90
22568;DHT22;11450;50.818;4.382;2022-12-07T06:53:42;5.60;99.90
22568;DHT22;11450;50.818;4.382;2022-12-07T06:56:07;5.60;99.90
22568;DHT22;11450;50.818;4.382;2022-12-07T06:58:33;5.60;99.90
22568;DHT22;11450;50.818;4.382;2022-12-07T07:00:59;5.60;99.90
22568;DHT22;11450;50.818;4.382;2022-12-07T07:03:25;5.60;99.90
22568;DHT22;11450;50.818;4.382;2022-12-07T07:05:50;5.60;99.90
22568;DHT22;11450;50.818;4.382;2022-12-07T07:08:16;5.50;99.90
22568;DHT22;11450;50.818;4.382;2022-12-07T07:10:42;5.50;99.90
22568;DHT22;11450;50.818;4.382;2022-12-07T07:13:07;5.60;99.90
22568;DHT22;11450;50.818;4.382;2022-12-07T07:15:34;5.70;99.90
22568;DHT22;11450;50.818;4.382;2022-12-07T07:18:00;5.70;99.90
22568;DHT22;11450;50.818;4.382;2022-12-07T07:20:25;5.60;99.90
22568;DHT22;11450;50.818;4.382;2022-12-07T07:22:55;5.60;99.90
22568;DHT22;11450;50.818;4.382;2022-12-07T07:25:21;5.50;99.90
22568;DHT22;11450;50.818;4.382;2022-12-07T07:27:46;5.50;99.90
22568;DHT22;11450;50.818;4.382;2022-12-07T07:30:12;5.60;99.90
22568;DHT22;11450;50.818;4.382;2022-12-07T07:32:38;5.60;99.90
22568;DHT22;11450;50.818;4.382;2022-12-07T07:35:05;5.60;99.90
22568;DHT22;11450;50.818;4.382;2022-12-07T07:37:31;5.60;99.90
22568;DHT22;11450;50.818;4.382;2022-12-07T07:39:56;5.50;99.90
22568;DHT22;11450;50.818;4.382;2022-12-07T07:42:22;5.60;99.90
22568;DHT22;11450;50.818;4.382;2022-12-07T07:44:48;5.50;99.90
22568;DHT22;11450;50.818;4.382;2022-12-07T07:47:13;5.50;99.90
22568;DHT22;11450;50.818;4.382;2022-12-07T07:49:39;5.50;99.90
22568;DHT22;11450;50.818;4.382;2022-12-07T07:52:05;5.50;99.90
22568;DHT22;11450;50.818;4.382;2022-12-07T07:54:31;5.50;99.90
22568;DHT22;11450;50.818;4.382;2022-12-07T07:56:57;5.60;99.90
22568;DHT22;11450;50.818;4.382;2022-12-07T07:59:23;5.60;99.90
22568;DHT22;11450;50.818;4.382;2022-12-07T08:01:48;5.70;99.90
22568;DHT22;11450;50.818;4.382;2022-12-07T08:04:14;5.80;99.90
22568;DHT22;11450;50.818;4.382;2022-12-07T08:06:40;5.60;99.90
22568;DHT22;11450;50.818;4.382;2022-12-07T08:09:09;5.60;99.90
22568;DHT22;11450;50.818;4.382;2022-12-07T08:11:38;5.70;99.90
22568;DHT22;11450;50.818;4.382;2022-12-07T08:14:04;5.60;99.90
22568;DHT22;11450;50.818;4.382;2022-12-07T08:16:30;5.70;99.90
22568;DHT22;11450;50.818;4.382;2022-12-07T08:18:55;5.60;99.90
22568;DHT22;11450;50.818;4.382;2022-12-07T08:21:21;5.60;99.90
22568;DHT22;11450;50.818;4.382;2022-12-07T08:23:47;5.60;99.90
22568;DHT22;11450;50.818;4.382;2022-12-07T08:26:16;5.50;99.90
22568;DHT22;11450;50.818;4.382;2022-12-07T08:28:42;5.50;99.90
22568;DHT22;11450;50.818;4.382;2022-12-07T08:31:13;5.60;99.90
22568;DHT22;11450;50.818;4.382;2022-12-07T08:33:39;5.60;99.90
22568;DHT22;11450;50.818;4.382;2022-12-07T08:36:08;5.40;99.90
22568;DHT22;11450;50.818;4.382;2022-12-07T08:38:35;5.50;99.90
22568;DHT22;11450;50.818;4.382;2022-12-07T08:41:01;5.50;99.90
22568;DHT22;11450;50.818;4.382;2022-12-07T08:43:27;5.40;99.90
22568;DHT22;11450;50.818;4.382;2022-12-07T08:48:52;5.50;99.90
22568;DHT22;11450;50.818;4.382;2022-12-07T08:54:36;5.50;99.90
22568;DHT22;11450;50.818;4.382;2022-12-07T08:57:03;5.50;99.90
22568;DHT22;11450;50.818;4.382;2022-12-07T08:59:30;5.60;99.90
22568;DHT22;11450;50.818;4.382;2022-12-07T09:01:56;5.70;99.90
22568;DHT22;11450;50.818;4.382;2022-12-07T09:04:22;5.70;99.90
22568;DHT22;11450;50.818;4.382;2022-12-07T09:06:47;5.80;99.90
22568;DHT22;11450;50.818;4.382;2022-12-07T09:09:13;5.80;99.90
22568;DHT22;11450;50.818;4.382;2022-12-07T09:11:40;5.80;99.90
22568;DHT22;11450;50.818;4.382;2022-12-07T09:14:06;5.90;99.90
22568;DHT22;11450;50.818;4.382;2022-12-07T09:16:31;6.00;99.90
22568;DHT22;11450;50.818;4.382;2022-12-07T09:18:57;6.00;99.90
22568;DHT22;11450;50.818;4.382;2022-12-07T09:21:25;6.00;99.90
22568;DHT22;11450;50.818;4.382;2022-12-07T09:23:55;6.10;99.90
22568;DHT22;11450;50.818;4.382;2022-12-07T09:26:21;6.20;99.90
22568;DHT22;11450;50.818;4.382;2022-12-07T09:28:47;6.20;99.90
22568;DHT22;11450;50.818;4.382;2022-12-07T09:31:13;6.30;99.90
22568;DHT22;11450;50.818;4.382;2022-12-07T09:33:38;6.30;99.90
22568;DHT22;11450;50.818;4.382;2022-12-07T09:36:04;6.40;99.90
22568;DHT22;11450;50.818;4.382;2022-12-07T09:38:30;6.40;99.90
22568;DHT22;11450;50.818;4.382;2022-12-07T09:40:58;6.50;99.90
22568;DHT22;11450;50.818;4.382;2022-12-07T09:43:29;6.50;99.90
22568;DHT22;11450;50.818;4.382;2022-12-07T09:45:55;6.60;99.90
22568;DHT22;11450;50.818;4.382;2022-12-07T09:48:34;6.70;99.90
22568;DHT22;11450;50.818;4.382;2022-12-07T09:53:43;6.80;99.90
22568;DHT22;11450;50.818;4.382;2022-12-07T09:56:13;6.80;99.90
22568;DHT22;11450;50.818;4.382;2022-12-07T09:58:39;6.80;99.90
22568;DHT22;11450;50.818;4.382;2022-12-07T10:03:36;6.80;99.90
22568;DHT22;11450;50.818;4.382;2022-12-07T10:06:04;6.80;99.90
22568;DHT22;11450;50.818;4.382;2022-12-07T10:08:31;6.80;99.90
22568;DHT22;11450;50.818;4.382;2022-12-07T10:10:58;6.80;99.90
22568;DHT22;11450;50.818;4.382;2022-12-07T10:13:45;6.90;99.90
22568;DHT22;11450;50.818;4.382;2022-12-07T10:16:35;6.90;99.90
22568;DHT22;11450;50.818;4.382;2022-12-07T10:19:32;6.90;99.90
22568;DHT22;11450;50.818;4.382;2022-12-07T10:22:17;6.90;99.90
22568;DHT22;11450;50.818;4.382;2022-12-07T10:24:46;6.80;99.90
22568;DHT22;11450;50.818;4.382;2022-12-07T10:27:29;6.90;99.90
22568;DHT22;11450;50.818;4.382;2022-12-07T10:29:57;6.80;99.90
22568;DHT22;11450;50.818;4.382;2022-12-07T10:32:33;6.80;99.90
22568;DHT22;11450;50.818;4.382;2022-12-07T10:37:43;6.80;99.90
22568;DHT22;11450;50.818;4.382;2022-12-07T10:43:24;6.90;99.90
22568;DHT22;11450;50.818;4.382;2022-12-07T10:46:01;7.00;99.90
22568;DHT22;11450;50.818;4.382;2022-12-07T10:51:51;7.20;99.90
22568;DHT22;11450;50.818;4.382;2022-12-07T10:54:24;7.20;99.90
22568;DHT22;11450;50.818;4.382;2022-12-07T10:56:58;7.30;99.90
22568;DHT22;11450;50.818;4.382;2022-12-07T10:59:53;7.40;99.90
22568;DHT22;11450;50.818;4.382;2022-12-07T11:02:49;7.40;99.90
22568;DHT22;11450;50.818;4.382;2022-12-07T11:16:22;7.50;99.90
22568;DHT22;11450;50.818;4.382;2022-12-07T11:19:19;7.50;99.90
22568;DHT22;11450;50.818;4.382;2022-12-07T11:22:08;7.60;99.90
22568;DHT22;11450;50.818;4.382;2022-12-07T11:24:54;7.70;99.90
22568;DHT22;11450;50.818;4.382;2022-12-07T11:27:51;7.70;99.90
22568;DHT22;11450;50.818;4.382;2022-12-07T11:31:07;7.60;99.90
22568;DHT22;11450;50.818;4.382;2022-12-07T11:33:52;7.70;99.90
22568;DHT22;11450;50.818;4.382;2022-12-07T11:36:40;7.50;99.90
22568;DHT22;11450;50.818;4.382;2022-12-07T11:39:21;7.50;99.90
22568;DHT22;11450;50.818;4.382;2022-12-07T11:41:54;7.40;99.90
22568;DHT22;11450;50.818;4.382;2022-12-07T11:47:16;7.40;99.90
22568;DHT22;11450;50.818;4.382;2022-12-07T11:49:44;7.50;99.90
22568;DHT22;11450;50.818;4.382;2022-12-07T11:52:25;7.40;99.90
22568;DHT22;11450;50.818;4.382;2022-12-07T11:54:53;7.50;99.90
22568;DHT22;11450;50.818;4.382;2022-12-07T11:57:36;7.40;99.90
22568;DHT22;11450;50.818;4.382;2022-12-07T12:00:12;7.40;99.90
22568;DHT22;11450;50.818;4.382;2022-12-07T12:03:00;7.40;99.90
22568;DHT22;11450;50.818;4.382;2022-12-07T12:05:32;7.40;99.90
22568;DHT22;11450;50.818;4.382;2022-12-07T12:08:15;7.40;99.90
22568;DHT22;11450;50.818;4.382;2022-12-07T12:11:03;7.40;99.90
22568;DHT22;11450;50.818;4.382;2022-12-07T12:14:08;7.50;99.90
22568;DHT22;11450;50.818;4.382;2022-12-07T12:16:48;7.50;99.90
22568;DHT22;11450;50.818;4.382;2022-12-07T12:22:19;7.70;99.90
22568;DHT22;11450;50.818;4.382;2022-12-07T12:24:55;7.80;99.90
22568;DHT22;11450;50.818;4.382;2022-12-07T12:27:30;7.80;99.90
22568;DHT22;11450;50.818;4.382;2022-12-07T12:29:59;7.80;99.90
22568;DHT22;11450;50.818;4.382;2022-12-07T12:32:36;7.80;99.90
22568;DHT22;11450;50.818;4.382;2022-12-07T12:35:30;7.80;99.90
22568;DHT22;11450;50.818;4.382;2022-12-07T12:40:44;7.80;99.90
22568;DHT22;11450;50.818;4.382;2022-12-07T12:43:48;7.80;99.90
22568;DHT22;11450;50.818;4.382;2022-12-07T12:55:13;7.60;99.90
22568;DHT22;11450;50.818;4.382;2022-12-07T12:57:40;7.70;99.90
22568;DHT22;11450;50.818;4.382;2022-12-07T13:00:26;7.70;99.90
22568;DHT22;11450;50.818;4.382;2022-12-07T13:02:58;7.70;99.90
22568;DHT22;11450;50.818;4.382;2022-12-07T13:05:31;7.60;99.90
22568;DHT22;11450;50.818;4.382;2022-12-07T13:08:20;7.60;99.90
22568;DHT22;11450;50.818;4.382;2022-12-07T13:10:47;7.70;99.90
22568;DHT22;11450;50.818;4.382;2022-12-07T13:15:47;7.60;99.90
22568;DHT22;11450;50.818;4.382;2022-12-07T13:23:18;7.80;99.90
22568;DHT22;11450;50.818;4.382;2022-12-07T13:26:37;7.70;99.90
22568;DHT22;11450;50.818;4.382;2022-12-07T13:29:20;7.80;99.90
22568;DHT22;11450;50.818;4.382;2022-12-07T13:31:57;7.70;99.90
22568;DHT22;11450;50.818;4.382;2022-12-07T13:34:36;7.70;99.90
22568;DHT22;11450;50.818;4.382;2022-12-07T13:37:16;7.70;99.90
22568;DHT22;11450;50.818;4.382;2022-12-07T13:39:51;7.70;99.90
22568;DHT22;11450;50.818;4.382;2022-12-07T13:42:35;7.80;99.90
22568;DHT22;11450;50.818;4.382;2022-12-07T13:45:29;7.80;99.90
22568;DHT22;11450;50.818;4.382;2022-12-07T13:51:01;7.80;99.90
22568;DHT22;11450;50.818;4.382;2022-12-07T13:53:28;7.80;99.90
22568;DHT22;11450;50.818;4.382;2022-12-07T13:55:57;7.80;99.90
22568;DHT22;11450;50.818;4.382;2022-12-07T13:58:24;7.80;99.90
22568;DHT22;11450;50.818;4.382;2022-12-07T14:00:50;7.80;99.90
22568;DHT22;11450;50.818;4.382;2022-12-07T14:05:44;7.80;99.90
22568;DHT22;11450;50.818;4.382;2022-12-07T14:10:57;7.70;99.90
22568;DHT22;11450;50.818;4.382;2022-12-07T14:13:37;7.80;99.90
22568;DHT22;11450;50.818;4.382;2022-12-07T14:16:34;7.70;99.90
22568;DHT22;11450;50.818;4.382;2022-12-07T14:19:20;7.70;99.90
22568;DHT22;11450;50.818;4.382;2022-12-07T14:22:28;7.60;99.90
22568;DHT22;11450;50.818;4.382;2022-12-07T14:25:19;7.60;99.90
22568;DHT22;11450;50.818;4.382;2022-12-07T14:30:28;7.40;99.90
22568;DHT22;11450;50.818;4.382;2022-12-07T14:33:04;7.30;99.90
22568;DHT22;11450;50.818;4.382;2022-12-07T14:35:32;7.30;99.90
22568;DHT22;11450;50.818;4.382;2022-12-07T14:37:57;7.20;99.90
22568;DHT22;11450;50.818;4.382;2022-12-07T14:40:28;7.20;99.90
22568;DHT22;11450;50.818;4.382;2022-12-07T14:43:00;7.20;99.90
22568;DHT22;11450;50.818;4.382;2022-12-07T14:45:27;7.10;99.90
22568;DHT22;11450;50.818;4.382;2022-12-07T14:47:53;7.10;99.90
22568;DHT22;11450;50.818;4.382;2022-12-07T14:50:20;6.90;99.90
22568;DHT22;11450;50.818;4.382;2022-12-07T14:52:50;6.90;99.90
22568;DHT22;11450;50.818;4.382;2022-12-07T14:55:29;6.90;99.90
22568;DHT22;11450;50.818;4.382;2022-12-07T14:57:59;6.80;99.90
22568;DHT22;11450;50.818;4.382;2022-12-07T15:00:26;6.80;99.90
22568;DHT22;11450;50.818;4.382;2022-12-07T15:02:53;6.80;99.90
22568;DHT22;11450;50.818;4.382;2022-12-07T15:05:18;6.80;99.90
22568;DHT22;11450;50.818;4.382;2022-12-07T15:07:45;6.80;99.90
22568;DHT22;11450;50.818;4.382;2022-12-07T15:10:22;6.90;99.90
22568;DHT22;11450;50.818;4.382;2022-12-07T15:12:49;6.90;99.90
22568;DHT22;11450;50.818;4.382;2022-12-07T15:15:15;6.90;99.90
22568;DHT22;11450;50.818;4.382;2022-12-07T15:17:43;6.90;99.90
22568;DHT22;11450;50.818;4.382;2022-12-07T15:20:14;6.90;99.90
22568;DHT22;11450;50.818;4.382;2022-12-07T15:22:42;7.00;99.90
22568;DHT22;11450;50.818;4.382;2022-12-07T15:25:12;6.90;99.90
22568;DHT22;11450;50.818;4.382;2022-12-07T15:27:38;7.00;99.90
22568;DHT22;11450;50.818;4.382;2022-12-07T15:30:04;6.90;99.90
22568;DHT22;11450;50.818;4.382;2022-12-07T15:35:06;6.90;99.90
22568;DHT22;11450;50.818;4.382;2022-12-07T15:37:41;7.00;99.90
22568;DHT22;11450;50.818;4.382;2022-12-07T15:40:09;6.90;99.90
22568;DHT22;11450;50.818;4.382;2022-12-07T15:42:36;7.00;99.90
22568;DHT22;11450;50.818;4.382;2022-12-07T15:45:02;7.10;99.90
22568;DHT22;11450;50.818;4.382;2022-12-07T15:47:36;7.00;99.90
22568;DHT22;11450;50.818;4.382;2022-12-07T15:50:04;7.00;99.90
22568;DHT22;11450;50.818;4.382;2022-12-07T15:52:30;6.80;99.90
22568;DHT22;11450;50.818;4.382;2022-12-07T15:54:55;6.90;99.90
22568;DHT22;11450;50.818;4.382;2022-12-07T15:57:21;6.90;99.90
22568;DHT22;11450;50.818;4.382;2022-12-07T15:59:47;6.80;99.90
22568;DHT22;11450;50.818;4.382;2022-12-07T16:02:13;6.80;99.90
22568;DHT22;11450;50.818;4.382;2022-12-07T16:04:40;6.60;99.90
22568;DHT22;11450;50.818;4.382;2022-12-07T16:07:05;6.60;99.90
22568;DHT22;11450;50.818;4.382;2022-12-07T16:09:31;6.50;99.90
22568;DHT22;11450;50.818;4.382;2022-12-07T16:11:57;6.50;99.90
22568;DHT22;11450;50.818;4.382;2022-12-07T16:14:23;6.50;99.90
22568;DHT22;11450;50.818;4.382;2022-12-07T16:16:48;6.60;99.90
22568;DHT22;11450;50.818;4.382;2022-12-07T16:19:14;6.60;99.90
22568;DHT22;11450;50.818;4.382;2022-12-07T16:21:41;6.60;99.90
22568;DHT22;11450;50.818;4.382;2022-12-07T16:24:09;6.70;99.90
22568;DHT22;11450;50.818;4.382;2022-12-07T16:26:35;6.80;99.90
22568;DHT22;11450;50.818;4.382;2022-12-07T16:29:11;6.80;99.90
22568;DHT22;11450;50.818;4.382;2022-12-07T16:31:38;6.80;99.90
22568;DHT22;11450;50.818;4.382;2022-12-07T16:34:06;6.80;99.90
22568;DHT22;11450;50.818;4.382;2022-12-07T16:36:32;6.80;99.90
22568;DHT22;11450;50.818;4.382;2022-12-07T16:39:00;6.70;99.90
22568;DHT22;11450;50.818;4.382;2022-12-07T16:41:38;6.70;99.90
22568;DHT22;11450;50.818;4.382;2022-12-07T16:44:09;6.70;99.90
22568;DHT22;11450;50.818;4.382;2022-12-07T16:46:35;6.70;99.90
22568;DHT22;11450;50.818;4.382;2022-12-07T16:49:02;6.80;99.90
22568;DHT22;11450;50.818;4.382;2022-12-07T16:51:28;6.70;99.90
22568;DHT22;11450;50.818;4.382;2022-12-07T16:53:54;6.70;99.90
22568;DHT22;11450;50.818;4.382;2022-12-07T16:56:20;6.70;99.90
22568;DHT22;11450;50.818;4.382;2022-12-07T16:58:46;6.80;99.90
22568;DHT22;11450;50.818;4.382;2022-12-07T17:01:20;6.80;99.90
22568;DHT22;11450;50.818;4.382;2022-12-07T17:03:51;6.70;99.90
22568;DHT22;11450;50.818;4.382;2022-12-07T17:06:22;6.80;99.90
22568;DHT22;11450;50.818;4.382;2022-12-07T17:09:11;6.80;99.90
22568;DHT22;11450;50.818;4.382;2022-12-07T17:11:45;6.80;99.90
22568;DHT22;11450;50.818;4.382;2022-12-07T17:14:11;6.80;99.90
22568;DHT22;11450;50.818;4.382;2022-12-07T17:16:56;6.70;99.90
22568;DHT22;11450;50.818;4.382;2022-12-07T17:19:22;6.70;99.90
22568;DHT22;11450;50.818;4.382;2022-12-07T17:21:52;6.50;99.90
22568;DHT22;11450;50.818;4.382;2022-12-07T17:24:19;6.60;99.90
22568;DHT22;11450;50.818;4.382;2022-12-07T17:26:46;6.60;99.90
22568;DHT22;11450;50.818;4.382;2022-12-07T17:29:21;6.80;99.90
22568;DHT22;11450;50.818;4.382;2022-12-07T17:47:18;6.70;99.90
22568;DHT22;11450;50.818;4.382;2022-12-07T17:49:48;6.70;99.90
22568;DHT22;11450;50.818;4.382;2022-12-07T17:52:37;6.80;99.90
22568;DHT22;11450;50.818;4.382;2022-12-07T17:55:45;6.70;99.90
22568;DHT22;11450;50.818;4.382;2022-12-07T18:04:36;6.60;99.90
22568;DHT22;11450;50.818;4.382;2022-12-07T18:07:03;6.80;99.90
22568;DHT22;11450;50.818;4.382;2022-12-07T18:09:55;6.70;99.90